Time;durP1;ratioP1;P1;durP2;ratioP2;P2;SDS_P1;SDS_P2;PMS_P1;PMS_P2;Temp;Humidity;BMP_temperature;BMP_pressure;BME280_temperature;BME280_humidity;BME280_pressure;Samples;Min_cycle;Max_cycle;Signal;HPM_P1;HPM_P2
2023/11/22 00:01:38;;;;;;;46.50;20.30;;;;;;;0.22;100.00;100829.34;110560;1272;22157;-76
2023/11/22 00:04:07;;;;;;;48.30;22.10;;;;;;;0.19;100.00;100824.71;110565;1273;22222;-76
2023/11/22 00:06:37;;;;;;;48.70;22.10;;;;;;;0.14;100.00;100825.35;110565;1273;22218;-76
2023/11/22 00:09:06;;;;;;;49.30;22.00;;;;;;;0.14;100.00;100827.54;110582;1266;22354;-76
2023/11/22 00:11:35;;;;;;;49.30;22.90;;;;;;;0.16;100.00;100835.63;110576;1273;22207;-76
2023/11/22 00:14:06;;;;;;;43.70;21.20;;;;;;;0.18;100.00;100834.20;110543;1273;22191;-78
2023/11/22 00:16:37;;;;;;;50.00;22.50;;;;;;;0.17;100.00;100836.10;110574;1273;22700;-76
2023/11/22 00:19:06;;;;;;;52.00;23.10;;;;;;;0.21;100.00;100835.77;110564;1269;22226;-76
2023/11/22 00:21:35;;;;;;;45.00;18.50;;;;;;;0.23;100.00;100836.08;110531;1267;22285;-76
2023/11/22 00:24:04;;;;;;;43.00;19.70;;;;;;;0.25;100.00;100840.23;110550;1273;22379;-75
2023/11/22 00:26:33;;;;;;;42.90;19.30;;;;;;;0.24;100.00;100846.27;110545;1273;22836;-75
2023/11/22 00:29:02;;;;;;;49.50;19.50;;;;;;;0.19;100.00;100849.20;110554;1273;23118;-75
2023/11/22 00:31:31;;;;;;;40.30;18.00;;;;;;;0.21;100.00;100854.36;110588;1273;22177;-75
2023/11/22 00:33:59;;;;;;;45.10;18.80;;;;;;;0.18;100.00;100856.33;110576;1265;22375;-75
2023/11/22 00:36:29;;;;;;;45.60;20.20;;;;;;;0.17;100.00;100858.77;110547;1273;22935;-75
2023/11/22 00:38:57;;;;;;;43.60;19.80;;;;;;;0.14;100.00;100865.35;110537;1273;22346;-75
2023/11/22 00:41:31;;;;;;;45.40;20.50;;;;;;;0.10;100.00;100868.34;110503;1271;22224;-75
2023/11/22 00:44:00;;;;;;;44.40;20.70;;;;;;;0.11;100.00;100876.96;110490;1273;22160;-75
2023/11/22 00:46:29;;;;;;;47.90;20.60;;;;;;;0.13;100.00;100883.47;110587;1273;22292;-75
2023/11/22 00:48:58;;;;;;;41.90;19.00;;;;;;;0.12;100.00;100884.66;110576;1266;23533;-75
2023/11/22 00:51:27;;;;;;;42.30;18.60;;;;;;;0.11;100.00;100886.38;110549;1272;22231;-75
2023/11/22 00:53:55;;;;;;;47.50;22.30;;;;;;;0.10;100.00;100883.95;110528;1273;22352;-75
2023/11/22 00:56:24;;;;;;;49.90;21.60;;;;;;;0.12;100.00;100887.48;110557;1273;23041;-75
2023/11/22 00:58:54;;;;;;;44.60;18.80;;;;;;;0.13;100.00;100892.65;110547;1273;22167;-75
2023/11/22 01:01:23;;;;;;;41.40;19.40;;;;;;;0.12;100.00;100891.86;110571;1273;23036;-75
2023/11/22 01:03:51;;;;;;;45.80;19.30;;;;;;;0.11;100.00;100888.58;110542;1267;22420;-75
2023/11/22 01:06:20;;;;;;;43.60;19.10;;;;;;;0.08;100.00;100891.00;110552;1272;22237;-75
2023/11/22 01:08:49;;;;;;;44.60;19.20;;;;;;;0.05;100.00;100894.69;110586;1273;22220;-75
2023/11/22 01:11:18;;;;;;;40.20;18.70;;;;;;;0.07;100.00;100891.48;110592;1273;22231;-75
2023/11/22 01:13:46;;;;;;;41.50;18.10;;;;;;;0.05;100.00;100893.52;110586;1273;22220;-75
2023/11/22 01:16:15;;;;;;;44.10;17.60;;;;;;;-0.01;100.00;100893.35;110569;1273;22288;-75
2023/11/22 01:18:46;;;;;;;44.90;19.20;;;;;;;-0.04;100.00;100896.80;110491;1272;22209;-75
2023/11/22 01:21:14;;;;;;;39.40;17.90;;;;;;;-0.06;100.00;100896.17;110519;1272;22610;-75
2023/11/22 01:23:45;;;;;;;49.00;20.60;;;;;;;-0.10;100.00;100893.59;110469;1273;22908;-76
2023/11/22 01:26:14;;;;;;;41.50;17.10;;;;;;;-0.15;100.00;100896.41;110495;1273;22200;-75
2023/11/22 01:28:44;;;;;;;43.00;18.80;;;;;;;-0.17;100.00;100894.61;110565;1273;23019;-75
2023/11/22 01:31:13;;;;;;;41.10;17.40;;;;;;;-0.17;100.00;100893.36;110467;1274;22248;-75
2023/11/22 01:33:42;;;;;;;41.30;16.30;;;;;;;-0.19;100.00;100897.81;110572;1273;23054;-75
2023/11/22 01:36:11;;;;;;;42.70;17.50;;;;;;;-0.20;100.00;100906.44;110594;1267;22184;-75
2023/11/22 01:38:39;;;;;;;41.20;16.70;;;;;;;-0.19;100.00;100910.27;110588;1270;22977;-75
2023/11/22 01:41:08;;;;;;;41.80;19.10;;;;;;;-0.19;100.00;100910.83;110505;1273;22927;-76
2023/11/22 01:43:39;;;;;;;40.90;17.20;;;;;;;-0.22;100.00;100908.15;110550;1273;22900;-75
2023/11/22 01:46:09;;;;;;;43.90;17.90;;;;;;;-0.22;100.00;100908.79;110561;1273;23031;-76
2023/11/22 01:48:37;;;;;;;46.30;20.00;;;;;;;-0.22;100.00;100911.05;110615;1271;22134;-76
2023/11/22 01:51:08;;;;;;;37.30;17.60;;;;;;;-0.18;100.00;100915.69;110527;1273;22257;-75
2023/11/22 01:53:38;;;;;;;40.40;15.80;;;;;;;-0.19;100.00;100917.09;110578;1269;22628;-75
2023/11/22 01:56:07;;;;;;;40.40;16.40;;;;;;;-0.23;100.00;100915.52;110487;1266;22171;-76
2023/11/22 01:58:35;;;;;;;40.40;15.40;;;;;;;-0.25;100.00;100917.48;110552;1273;23084;-75
2023/11/22 02:01:06;;;;;;;39.90;17.90;;;;;;;-0.27;100.00;100918.18;110541;1273;22831;-75
2023/11/22 02:03:34;;;;;;;;;;;;;;;-0.24;100.00;100924.46;110557;1273;22439;-75
2023/11/22 02:06:03;;;;;;;37.30;15.20;;;;;;;-0.22;100.00;100927.28;110576;1273;23670;-76
2023/11/22 02:08:31;;;;;;;43.40;17.00;;;;;;;-0.20;100.00;100927.20;110584;1269;22224;-75
2023/11/22 02:11:01;;;;;;;47.40;18.70;;;;;;;-0.21;100.00;100933.79;110565;1272;22343;-75
2023/11/22 02:13:30;;;;;;;38.00;14.30;;;;;;;-0.19;100.00;100946.11;110520;1272;22191;-75
2023/11/22 02:16:01;;;;;;;40.10;17.50;;;;;;;-0.19;100.00;100955.36;110568;1269;22897;-75
2023/11/22 02:18:30;;;;;;;37.20;16.10;;;;;;;-0.20;100.00;100956.69;110587;1273;22900;-75
2023/11/22 02:21:00;;;;;;;35.60;14.70;;;;;;;-0.19;100.00;100960.30;110457;1273;22345;-75
2023/11/22 02:23:29;;;;;;;36.50;16.10;;;;;;;-0.18;100.00;100962.17;110468;1273;22079;-75
2023/11/22 02:25:58;;;;;;;41.40;16.50;;;;;;;-0.21;100.00;100960.91;110476;1273;22439;-76
2023/11/22 02:28:27;;;;;;;40.10;15.80;;;;;;;-0.21;100.00;100962.71;110628;1273;22189;-76
2023/11/22 02:30:56;;;;;;;43.30;17.70;;;;;;;-0.19;100.00;100959.98;110589;1273;22166;-75
2023/11/22 02:33:25;;;;;;;34.70;14.60;;;;;;;-0.18;100.00;100961.16;110604;1272;22226;-76
2023/11/22 02:35:54;;;;;;;38.60;14.70;;;;;;;-0.18;100.00;100965.63;110605;1266;22397;-76
2023/11/22 02:38:26;;;;;;;34.60;15.40;;;;;;;-0.19;100.00;100966.48;110616;1273;22166;-76
2023/11/22 02:40:55;;;;;;;39.00;16.30;;;;;;;-0.18;100.00;100973.31;110629;1273;22213;-76
2023/11/22 02:43:24;;;;;;;31.70;12.80;;;;;;;-0.16;100.00;100976.61;110592;1273;23216;-75
2023/11/22 02:45:53;;;;;;;43.10;16.60;;;;;;;-0.15;100.00;100975.44;110608;1273;22376;-76
2023/11/22 02:48:22;;;;;;;33.30;12.70;;;;;;;-0.16;100.00;100977.40;110618;1256;22216;-75
2023/11/22 02:50:54;;;;;;;37.50;14.70;;;;;;;-0.17;100.00;100984.22;110607;1256;22166;-75
2023/11/22 02:53:22;;;;;;;33.40;13.40;;;;;;;-0.16;100.00;100990.33;110627;1273;22186;-76
2023/11/22 02:55:51;;;;;;;34.60;14.50;;;;;;;-0.17;100.00;100995.42;110611;1273;22724;-76
2023/11/22 02:58:20;;;;;;;29.30;11.10;;;;;;;-0.20;100.00;100996.20;110608;1266;22418;-76
2023/11/22 03:00:49;;;;;;;39.60;17.10;;;;;;;-0.24;99.97;100999.09;110496;1269;22238;-76
2023/11/22 03:03:18;;;;;;;35.70;15.40;;;;;;;-0.27;99.95;101005.75;110560;1273;22833;-76
2023/11/22 03:05:46;;;;;;;31.90;13.80;;;;;;;-0.26;100.00;101016.80;110578;1273;22160;-76
2023/11/22 03:08:15;;;;;;;40.00;16.00;;;;;;;-0.25;100.00;101020.58;110602;1273;22576;-76
2023/11/22 03:10:44;;;;;;;35.60;15.80;;;;;;;-0.24;100.00;101028.88;110612;1273;22177;-76
2023/11/22 03:13:13;;;;;;;30.40;13.30;;;;;;;-0.22;100.00;101029.12;110569;1273;23640;-76
2023/11/22 03:15:42;;;;;;;34.70;13.50;;;;;;;-0.22;100.00;101033.27;110600;1273;22228;-76
2023/11/22 03:18:11;;;;;;;38.90;15.70;;;;;;;-0.21;100.00;101043.16;110639;1273;22174;-76
2023/11/22 03:20:42;;;;;;;37.10;15.00;;;;;;;-0.22;100.00;101047.39;110605;1273;23207;-76
2023/11/22 03:23:11;;;;;;;33.20;11.40;;;;;;;-0.25;99.65;101054.43;110576;1273;23346;-76
2023/11/22 03:25:39;;;;;;;34.90;16.00;;;;;;;-0.29;99.56;101055.36;110592;1273;22286;-76
2023/11/22 03:28:08;;;;;;;33.70;13.70;;;;;;;-0.29;99.95;101063.44;110590;1265;22290;-76
2023/11/22 03:30:37;;;;;;;35.30;13.60;;;;;;;-0.29;99.65;101065.86;110624;1273;23134;-76
2023/11/22 03:33:06;;;;;;;32.30;13.20;;;;;;;-0.29;99.91;101072.38;110571;1269;22222;-76
2023/11/22 03:35:35;;;;;;;36.40;14.90;;;;;;;-0.29;99.73;101080.30;110604;1273;22880;-76
2023/11/22 03:38:03;;;;;;;30.70;13.50;;;;;;;-0.29;99.93;101083.04;110617;1273;22428;-76
2023/11/22 03:40:39;;;;;;;30.80;12.70;;;;;;;-0.31;99.68;101085.45;110572;1273;22187;-75
2023/11/22 03:43:10;;;;;;;35.50;14.20;;;;;;;-0.36;99.24;101087.39;110610;1273;22216;-75
2023/11/22 03:45:38;;;;;;;33.30;13.70;;;;;;;-0.36;99.58;101089.73;110602;1273;22203;-76
2023/11/22 03:48:08;;;;;;;34.70;12.70;;;;;;;-0.36;99.60;101088.48;110604;1273;22193;-76
2023/11/22 03:50:36;;;;;;;32.90;12.30;;;;;;;-0.38;99.60;101091.23;110605;1273;22377;-76
2023/11/22 03:53:05;;;;;;;30.00;12.00;;;;;;;-0.40;99.11;101094.81;110589;1273;22874;-76
2023/11/22 03:55:34;;;;;;;27.90;11.30;;;;;;;-0.43;99.22;101104.52;110602;1273;23347;-75
2023/11/22 03:58:02;;;;;;;26.90;10.70;;;;;;;-0.46;99.02;101113.74;110554;1273;23050;-76
2023/11/22 04:00:32;;;;;;;28.20;10.80;;;;;;;-0.52;98.86;101112.55;110551;1273;22997;-76
2023/11/22 04:03:01;;;;;;;27.40;10.00;;;;;;;-0.54;99.08;101116.14;110594;1273;22185;-76
2023/11/22 04:05:30;;;;;;;28.30;9.70;;;;;;;-0.54;99.37;101119.75;110599;1273;22974;-76
2023/11/22 04:07:59;;;;;;;24.80;9.50;;;;;;;-0.54;99.09;101123.73;110526;1273;22395;-77
2023/11/22 04:10:28;;;;;;;23.70;8.00;;;;;;;-0.57;98.85;101120.81;110615;1255;22176;-76
2023/11/22 04:12:57;;;;;;;25.40;9.90;;;;;;;-0.57;98.85;101117.05;110598;1273;22326;-76
2023/11/22 04:15:27;;;;;;;24.60;9.10;;;;;;;-0.55;99.44;101118.95;110578;1273;22237;-76
2023/11/22 04:17:55;;;;;;;27.50;10.60;;;;;;;-0.53;99.19;101129.69;110599;1273;22415;-76
2023/11/22 04:20:24;;;;;;;30.80;10.70;;;;;;;-0.55;98.95;101139.33;110584;1273;22155;-76
2023/11/22 04:22:53;;;;;;;24.30;8.90;;;;;;;-0.59;98.69;101134.42;110616;1273;22163;-76
2023/11/22 04:25:23;;;;;;;25.20;9.80;;;;;;;-0.59;98.91;101129.48;110611;1273;22852;-76
2023/11/22 04:27:52;;;;;;;26.90;9.60;;;;;;;-0.59;99.19;101130.44;110599;1273;22280;-76
2023/11/22 04:30:20;;;;;;;23.70;8.40;;;;;;;-0.62;98.65;101132.30;110586;1273;22217;-76
2023/11/22 04:33:04;;;;;;;26.30;8.60;;;;;;;-0.62;98.90;101138.95;110507;1268;22969;-76
2023/11/22 04:35:36;;;;;;;25.20;8.70;;;;;;;-0.65;98.46;101141.67;110477;1273;22321;-75
2023/11/22 04:38:05;;;;;;;24.70;9.20;;;;;;;-0.68;98.67;101137.19;110500;1273;22438;-76
2023/11/22 04:40:34;;;;;;;22.40;7.70;;;;;;;-0.68;98.85;101139.45;110603;1273;22261;-76
2023/11/22 04:43:03;;;;;;;23.40;8.50;;;;;;;-0.68;98.67;101142.29;110458;1267;22169;-76
2023/11/22 04:45:32;;;;;;;24.30;8.30;;;;;;;-0.70;98.42;101144.63;110586;1275;22165;-76
2023/11/22 04:48:00;;;;;;;21.10;7.70;;;;;;;-0.71;98.40;101155.50;110572;1269;23046;-77
2023/11/22 04:50:29;;;;;;;21.80;6.60;;;;;;;-0.73;98.26;101159.10;110613;1273;22358;-76
2023/11/22 04:52:58;;;;;;;20.40;6.10;;;;;;;-0.77;97.83;101163.84;110447;1267;22370;-76
2023/11/22 04:55:28;;;;;;;22.70;7.10;;;;;;;-0.75;98.76;101166.83;110570;1273;22362;-76
2023/11/22 04:57:56;;;;;;;23.00;6.90;;;;;;;-0.70;98.86;101163.82;110574;1273;22422;-76
2023/11/22 05:00:26;;;;;;;24.60;7.20;;;;;;;-0.71;98.50;101165.84;110566;1273;22237;-76
2023/11/22 05:02:54;;;;;;;21.90;6.70;;;;;;;-0.69;98.44;101170.26;110568;1272;22170;-76
2023/11/22 05:05:23;;;;;;;23.00;7.10;;;;;;;-0.74;97.56;101170.05;110442;1270;22167;-76
2023/11/22 05:07:52;;;;;;;19.30;6.60;;;;;;;-0.75;98.12;101166.82;110323;1267;22189;-78
2023/11/22 05:10:22;;;;;;;22.20;6.90;;;;;;;-0.72;98.39;101174.30;110446;1272;22540;-77
2023/11/22 05:12:51;;;;;;;24.20;6.40;;;;;;;-0.72;98.03;101178.77;110341;1269;22698;-81
2023/11/22 05:15:26;;;;;;;22.50;7.70;;;;;;;-0.72;98.27;101186.60;110401;1272;22941;-78
2023/11/22 05:17:55;;;;;;;20.60;6.50;;;;;;;-0.69;98.40;101195.71;110581;1272;22211;-78
2023/11/22 05:20:32;;;;;;;19.60;7.10;;;;;;;-0.69;98.33;101203.86;108632;1272;22524;-78
2023/11/22 05:23:05;;;;;;;22.90;7.30;;;;;;;-0.69;97.94;101207.54;110557;1267;22428;-77
2023/11/22 05:25:34;;;;;;;22.60;6.90;;;;;;;-0.68;98.34;101212.56;109563;1273;26888;-77
2023/11/22 05:28:04;;;;;;;21.40;6.60;;;;;;;-0.68;98.14;101233.09;107967;1273;24217;-78
2023/11/22 05:30:32;;;;;;;22.20;6.60;;;;;;;-0.68;98.31;101243.98;110622;1273;22181;-78
2023/11/22 05:33:01;;;;;;;22.40;6.20;;;;;;;-0.67;98.26;101241.56;110602;1273;23233;-78
2023/11/22 05:35:30;;;;;;;22.50;7.60;;;;;;;-0.64;98.56;101250.60;110570;1273;22960;-78
2023/11/22 05:37:59;;;;;;;22.80;7.00;;;;;;;-0.61;98.70;101243.95;110445;1273;22353;-78
2023/11/22 05:40:29;;;;;;;20.90;6.90;;;;;;;-0.59;98.56;101245.30;110466;1273;22244;-78
2023/11/22 05:42:58;;;;;;;23.20;7.10;;;;;;;-0.61;97.97;101255.79;110634;1273;23458;-78
2023/11/22 05:45:29;;;;;;;24.90;7.30;;;;;;;-0.60;98.22;101262.94;110609;1273;22236;-78
2023/11/22 05:47:57;;;;;;;25.40;7.70;;;;;;;-0.58;98.22;101263.09;110653;1267;23055;-78
2023/11/22 05:50:27;;;;;;;25.90;7.60;;;;;;;-0.61;97.52;101270.20;110619;1273;22167;-78
2023/11/22 05:52:57;;;;;;;23.00;7.60;;;;;;;-0.64;97.69;101271.27;110626;1270;22182;-78
2023/11/22 05:55:26;;;;;;;22.10;6.40;;;;;;;-0.61;98.22;101274.27;110616;1273;22219;-78
2023/11/22 05:57:56;;;;;;;23.60;7.40;;;;;;;-0.61;98.06;101279.37;110661;1273;22216;-79
2023/11/22 06:00:26;;;;;;;23.80;7.20;;;;;;;-0.60;98.21;101289.88;110647;1254;22221;-78
2023/11/22 06:02:55;;;;;;;20.30;7.20;;;;;;;-0.59;98.15;101295.00;110524;1273;22170;-78
2023/11/22 06:05:25;;;;;;;26.70;7.90;;;;;;;-0.56;98.45;101295.64;110610;1273;22221;-78
2023/11/22 06:07:55;;;;;;;23.00;7.00;;;;;;;-0.56;98.33;101301.36;110627;1273;22232;-78
2023/11/22 06:10:24;;;;;;;24.10;8.40;;;;;;;-0.56;98.08;101306.77;110572;1273;22242;-78
2023/11/22 06:12:54;;;;;;;27.60;8.40;;;;;;;-0.55;98.26;101315.16;110621;1267;22326;-78
2023/11/22 06:15:23;;;;;;;22.90;7.10;;;;;;;-0.52;98.31;101318.95;110605;1273;22253;-77
2023/11/22 06:17:52;;;;;;;25.90;8.60;;;;;;;-0.52;98.25;101317.55;110608;1273;22175;-77
2023/11/22 06:20:23;;;;;;;25.20;9.10;;;;;;;-0.48;98.37;101326.75;110570;1270;22407;-78
2023/11/22 06:22:52;;;;;;;23.40;8.30;;;;;;;-0.47;98.26;101337.82;110612;1270;22256;-77
2023/11/22 06:25:22;;;;;;;23.70;8.80;;;;;;;-0.46;98.13;101332.49;110612;1270;22206;-77
2023/11/22 06:27:51;;;;;;;23.30;7.90;;;;;;;-0.45;98.23;101321.91;110619;1273;23114;-77
2023/11/22 06:30:20;;;;;;;26.00;8.60;;;;;;;-0.45;97.69;101323.10;110633;1273;22300;-77
2023/11/22 06:32:49;;;;;;;22.50;6.80;;;;;;;-0.47;97.70;101324.33;110572;1273;22129;-77
2023/11/22 06:35:18;;;;;;;23.40;8.80;;;;;;;-0.47;97.51;101332.33;110613;1268;22193;-78
2023/11/22 06:37:47;;;;;;;27.50;9.70;;;;;;;-0.49;96.95;101335.59;110636;1273;22197;-77
2023/11/22 06:40:16;;;;;;;30.60;9.40;;;;;;;-0.55;96.25;101337.98;110625;1273;22305;-77
2023/11/22 06:42:46;;;;;;;26.90;8.20;;;;;;;-0.57;96.39;101343.27;110672;1270;22952;-77
2023/11/22 06:45:16;;;;;;;28.70;10.30;;;;;;;-0.61;96.22;101347.93;110647;1266;22868;-77
2023/11/22 06:47:44;;;;;;;;;;;;;;;-0.60;96.97;101351.00;110614;1273;22398;-77
2023/11/22 06:50:14;;;;;;;20.30;6.30;;;;;;;-0.61;96.70;101352.85;110626;1267;22449;-78
2023/11/22 06:52:44;;;;;;;30.10;10.10;;;;;;;-0.61;96.90;101353.82;110615;1273;22145;-77
2023/11/22 06:55:13;;;;;;;25.10;9.00;;;;;;;-0.59;97.32;101356.34;110630;1270;22163;-77
2023/11/22 06:57:42;;;;;;;26.90;7.70;;;;;;;-0.59;96.97;101359.46;110654;1273;22177;-77
2023/11/22 07:00:13;;;;;;;25.60;7.50;;;;;;;-0.61;96.68;101358.91;110611;1273;22172;-77
2023/11/22 07:02:42;;;;;;;24.90;8.80;;;;;;;-0.63;96.37;101364.14;110432;1273;22202;-77
2023/11/22 07:05:14;;;;;;;21.00;7.10;;;;;;;-0.62;96.16;101368.85;110639;1273;22414;-77
2023/11/22 07:07:43;;;;;;;24.80;7.60;;;;;;;-0.63;96.35;101368.67;110628;1271;22139;-78
2023/11/22 07:10:13;;;;;;;23.50;7.30;;;;;;;-0.61;96.78;101371.52;110630;1270;22140;-78
2023/11/22 07:12:43;;;;;;;25.40;8.70;;;;;;;-0.59;96.80;101375.55;110609;1270;22215;-77
2023/11/22 07:15:13;;;;;;;21.50;6.40;;;;;;;-0.57;96.37;101378.60;110595;1267;22216;-77
2023/11/22 07:17:41;;;;;;;;;;;;;;;-0.58;96.11;101376.41;110651;1273;23097;-77
2023/11/22 07:20:16;;;;;;;22.40;7.10;;;;;;;-0.58;96.50;101380.48;110630;1273;22181;-78
2023/11/22 07:22:44;;;;;;;22.10;7.00;;;;;;;-0.55;96.35;101378.88;110643;1273;22185;-78
2023/11/22 07:25:17;;;;;;;23.40;6.70;;;;;;;-0.54;96.43;101382.71;110629;1273;22225;-77
2023/11/22 07:27:47;;;;;;;22.00;6.80;;;;;;;-0.50;96.69;101377.90;110598;1273;23001;-75
2023/11/22 07:30:19;;;;;;;24.80;6.50;;;;;;;-0.50;95.89;101381.90;110504;1273;22056;-75
2023/11/22 07:32:48;;;;;;;23.70;6.80;;;;;;;-0.52;96.03;101391.67;110592;1273;22903;-76
2023/11/22 07:35:19;;;;;;;22.20;7.00;;;;;;;-0.53;95.76;101390.73;110576;1273;22189;-76
2023/11/22 07:37:48;;;;;;;18.10;5.90;;;;;;;-0.52;95.98;101383.92;110590;1273;22937;-76
2023/11/22 07:40:19;;;;;;;24.80;8.20;;;;;;;-0.49;96.03;101378.08;110591;1273;22201;-77
2023/11/22 07:42:49;;;;;;;20.60;6.20;;;;;;;-0.47;96.01;101369.86;110622;1273;22194;-77
2023/11/22 07:45:27;;;;;;;18.40;5.70;;;;;;;-0.45;95.87;101365.10;110619;1262;22208;-76
2023/11/22 07:47:59;;;;;;;18.90;5.20;;;;;;;-0.44;95.46;101376.39;110612;1273;22356;-76
2023/11/22 07:50:29;;;;;;;23.50;5.90;;;;;;;-0.46;95.35;101380.30;110519;1273;22189;-76
2023/11/22 07:52:58;;;;;;;24.10;7.00;;;;;;;-0.46;95.30;101381.46;110603;1273;22949;-77
2023/11/22 07:55:27;;;;;;;26.30;6.40;;;;;;;-0.48;95.23;101389.53;110609;1273;22168;-77
2023/11/22 07:57:56;;;;;;;19.20;4.70;;;;;;;-0.47;95.68;101396.73;110610;1273;22532;-77
2023/11/22 08:00:43;;;;;;;18.10;5.40;;;;;;;-0.44;95.93;101393.80;110561;1273;23019;-76
2023/11/22 08:03:15;;;;;;;22.10;5.80;;;;;;;-0.43;95.05;101402.52;110647;1272;23025;-77
2023/11/22 08:05:48;;;;;;;21.10;5.00;;;;;;;-0.42;95.93;101406.84;110608;1273;22183;-76
2023/11/22 08:08:16;;;;;;;25.50;7.10;;;;;;;-0.39;95.61;101418.14;110620;1270;22212;-77
2023/11/22 08:10:47;;;;;;;20.70;5.20;;;;;;;-0.41;94.95;101429.80;110450;1272;235660;-76
2023/11/22 08:13:19;;;;;;;22.00;6.20;;;;;;;-0.41;95.33;101437.64;110611;1267;22166;-76
2023/11/22 08:15:48;;;;;;;23.90;6.40;;;;;;;-0.39;95.79;101434.52;110600;1273;22325;-76
2023/11/22 08:18:18;;;;;;;20.80;5.90;;;;;;;-0.36;95.86;101434.89;110613;1263;22171;-77
2023/11/22 08:20:47;;;;;;;;;;;;;;;-0.36;95.52;101438.08;110630;1272;22434;-77
2023/11/22 08:23:17;;;;;;;16.10;4.00;;;;;;;-0.37;96.00;101444.58;110593;1273;22233;-76
2023/11/22 08:25:48;;;;;;;13.10;3.50;;;;;;;-0.35;95.92;101450.64;110604;1273;22212;-76
2023/11/22 08:28:17;;;;;;;18.50;5.10;;;;;;;-0.36;95.64;101455.96;110654;1272;22338;-77
2023/11/22 08:30:46;;;;;;;20.10;7.10;;;;;;;-0.36;95.70;101464.98;110583;1273;22468;-76
2023/11/22 08:33:15;;;;;;;20.50;5.60;;;;;;;-0.33;96.19;101468.06;110585;1273;22174;-77
2023/11/22 08:35:50;;;;;;;18.50;4.40;;;;;;;-0.32;96.11;101472.16;110642;1270;22170;-77
2023/11/22 08:38:19;;;;;;;23.90;7.20;;;;;;;-0.34;95.71;101467.59;110631;1272;22168;-77
2023/11/22 08:40:48;;;;;;;21.50;7.00;;;;;;;-0.35;95.93;101461.86;110599;1273;22854;-77
2023/11/22 08:43:22;;;;;;;23.40;6.40;;;;;;;-0.34;95.77;101458.42;110602;1272;22892;-76
2023/11/22 08:45:51;;;;;;;20.60;6.00;;;;;;;-0.37;95.52;101460.80;110674;1271;22786;-76
2023/11/22 08:48:20;;;;;;;23.70;7.10;;;;;;;-0.37;95.68;101447.80;110666;1272;22238;-77
2023/11/22 08:50:49;;;;;;;22.80;8.50;;;;;;;-0.39;95.64;101440.48;110604;1273;22219;-77
2023/11/22 08:53:19;;;;;;;19.90;7.20;;;;;;;-0.37;95.84;101441.75;110599;1270;22788;-77
2023/11/22 08:55:48;;;;;;;20.10;7.40;;;;;;;-0.40;95.65;101438.20;110628;1273;22082;-77
2023/11/22 08:58:18;;;;;;;26.00;9.40;;;;;;;-0.42;95.39;101432.05;110588;1266;22376;-77
2023/11/22 09:00:49;;;;;;;25.20;8.90;;;;;;;-0.47;95.51;101430.23;110655;1273;22855;-78
2023/11/22 09:03:18;;;;;;;25.90;10.00;;;;;;;-0.45;95.99;101432.98;110610;1273;22235;-77
2023/11/22 09:05:49;;;;;;;24.10;8.20;;;;;;;-0.47;95.47;101438.44;110624;1273;22216;-77
2023/11/22 09:08:17;;;;;;;28.40;10.60;;;;;;;-0.47;95.89;101438.20;110621;1273;22208;-77
2023/11/22 09:10:48;;;;;;;22.40;9.50;;;;;;;-0.47;95.67;101446.98;110585;1273;22155;-77
2023/11/22 09:13:19;;;;;;;24.40;9.50;;;;;;;-0.51;95.38;101455.96;110737;1273;22220;-77
2023/11/22 09:16:10;;;;;;;25.60;8.90;;;;;;;-0.55;95.18;101454.42;110535;1273;22465;-77
2023/11/22 09:18:38;;;;;;;29.30;10.50;;;;;;;-0.56;95.52;101445.23;110620;1272;22352;-77
2023/11/22 09:21:09;;;;;;;27.60;10.50;;;;;;;-0.50;96.35;101445.00;110591;1273;22166;-77
2023/11/22 09:23:40;;;;;;;27.50;10.70;;;;;;;-0.45;96.27;101445.27;110599;1270;22195;-77
2023/11/22 09:26:09;;;;;;;23.10;9.00;;;;;;;-0.41;96.33;101444.46;110634;1273;22420;-77
2023/11/22 09:28:40;;;;;;;26.80;10.30;;;;;;;-0.41;95.59;101451.36;110667;1272;22243;-77
2023/11/22 09:31:11;;;;;;;26.70;8.70;;;;;;;-0.43;95.70;101455.25;110602;1272;22197;-77
2023/11/22 09:33:39;;;;;;;24.60;8.80;;;;;;;-0.43;95.72;101456.42;110604;1273;22982;-77
2023/11/22 09:36:10;;;;;;;27.40;11.20;;;;;;;-0.40;95.93;101450.27;110597;1273;23133;-77
2023/11/22 09:38:39;;;;;;;26.10;10.00;;;;;;;-0.36;96.04;101440.27;110616;1272;22226;-77
2023/11/22 09:41:08;;;;;;;24.10;9.10;;;;;;;-0.33;96.15;101443.92;110586;1272;22452;-76
2023/11/22 09:43:39;;;;;;;;;;;;;;;-0.33;95.29;101443.69;110595;1273;22475;-76
2023/11/22 09:46:11;;;;;;;24.50;8.40;;;;;;;-0.39;95.14;101437.20;110619;1266;22416;-76
2023/11/22 09:48:41;;;;;;;27.40;9.70;;;;;;;-0.40;94.85;101439.21;110620;1272;22164;-76
2023/11/22 09:51:17;;;;;;;;;;;;;;;-0.43;94.83;101440.28;110599;1270;22488;-76
2023/11/22 09:53:56;;;;;;;32.10;9.70;;;;;;;-0.39;95.68;101432.58;110586;1272;22205;-76
2023/11/22 09:56:26;;;;;;;25.50;8.10;;;;;;;-0.30;96.20;101436.66;110574;1273;22146;-77
2023/11/22 09:59:00;;;;;;;25.50;9.90;;;;;;;-0.24;95.59;101441.59;110618;1273;22680;-77
2023/11/22 10:01:30;;;;;;;27.70;9.00;;;;;;;-0.18;95.65;101453.72;110551;1273;22967;-77
2023/11/22 10:04:00;;;;;;;27.10;8.50;;;;;;;-0.15;95.13;101448.50;110585;1270;22202;-76
2023/11/22 10:06:33;;;;;;;25.50;9.60;;;;;;;-0.17;94.61;101447.85;110630;1272;22291;-77
2023/11/22 10:09:08;;;;;;;30.10;10.40;;;;;;;-0.14;95.25;101448.83;110613;1272;23272;-77
2023/11/22 10:11:43;;;;;;;24.50;9.00;;;;;;;-0.12;94.50;101455.89;110588;1273;22190;-77
2023/11/22 10:14:22;;;;;;;23.00;8.00;;;;;;;-0.12;94.34;101461.94;110646;1272;22226;-77
2023/11/22 10:17:00;;;;;;;24.70;8.10;;;;;;;-0.12;94.30;101462.41;110608;1270;22199;-77
2023/11/22 10:19:30;;;;;;;30.00;10.30;;;;;;;-0.11;94.46;101458.72;110587;1272;22163;-77
2023/11/22 10:22:06;;;;;;;26.50;9.00;;;;;;;-0.10;94.50;101451.99;110623;1272;22156;-77
2023/11/22 10:24:36;;;;;;;24.30;8.90;;;;;;;-0.06;94.83;101443.80;110589;1273;22227;-78
2023/11/22 10:27:06;;;;;;;24.10;7.90;;;;;;;-0.02;95.16;101445.71;110611;1273;22304;-78
2023/11/22 10:29:36;;;;;;;27.70;9.60;;;;;;;-0.01;94.13;101444.88;110656;1272;22982;-77
2023/11/22 10:32:27;;;;;;;25.00;9.10;;;;;;;-0.04;93.50;101441.77;110624;1271;22244;-77
2023/11/22 10:34:56;;;;;;;23.80;7.90;;;;;;;-0.03;93.80;101445.79;110677;1272;22702;-76
2023/11/22 10:37:28;;;;;;;23.30;7.50;;;;;;;-0.02;93.38;101449.09;110549;1273;22179;-76
2023/11/22 10:39:57;;;;;;;23.40;7.20;;;;;;;-0.00;93.86;101461.75;110581;1273;23019;-77
2023/11/22 10:42:26;;;;;;;22.00;8.20;;;;;;;0.01;93.91;101472.98;110601;1273;22171;-77
2023/11/22 10:44:57;;;;;;;20.90;7.50;;;;;;;-0.00;93.23;101478.84;110560;1273;23083;-77
2023/11/22 10:47:29;;;;;;;23.30;8.00;;;;;;;-0.03;93.75;101478.51;110541;1273;22671;-77
2023/11/22 10:50:01;;;;;;;23.00;7.80;;;;;;;-0.03;93.67;101487.36;110586;1273;23015;-77
2023/11/22 10:52:33;;;;;;;25.60;7.80;;;;;;;-0.03;93.84;101498.98;110596;1273;22186;-77
2023/11/22 10:55:05;;;;;;;23.50;7.30;;;;;;;-0.03;93.57;101504.52;110593;1273;22338;-77
2023/11/22 10:57:41;;;;;;;22.10;7.30;;;;;;;-0.06;93.23;101517.13;110580;1273;22811;-77
2023/11/22 11:00:16;;;;;;;24.10;7.10;;;;;;;-0.11;92.89;101517.01;110580;1273;22208;-77
2023/11/22 11:02:49;;;;;;;24.60;7.20;;;;;;;-0.13;93.21;101518.23;110588;1273;22201;-77
2023/11/22 11:05:22;;;;;;;26.50;8.80;;;;;;;-0.09;93.54;101520.09;110580;1273;22978;-77
2023/11/22 11:08:01;;;;;;;23.70;8.30;;;;;;;-0.02;93.93;101527.22;110594;1273;22213;-77
2023/11/22 11:10:31;;;;;;;21.60;6.50;;;;;;;0.02;93.39;101530.63;110581;1270;22249;-76
2023/11/22 11:13:01;;;;;;;19.40;6.60;;;;;;;0.02;92.73;101532.91;110594;1273;22188;-76
2023/11/22 11:15:31;;;;;;;21.30;6.70;;;;;;;0.03;92.57;101525.54;110626;1273;22173;-76
2023/11/22 11:18:01;;;;;;;19.90;6.50;;;;;;;0.08;93.04;101517.52;110598;1273;22175;-76
2023/11/22 11:20:46;;;;;;;22.20;7.40;;;;;;;0.15;93.21;101505.73;110590;1270;22213;-76